Time;durP1;ratioP1;P1;durP2;ratioP2;P2;SDS_P1;SDS_P2;PMS_P1;PMS_P2;Temp;Humidity;BMP_temperature;BMP_pressure;BME280_temperature;BME280_humidity;BME280_pressure;Samples;Min_cycle;Max_cycle;Signal;HPM_P1;HPM_P2
2022/08/26 00:00:55;;;;;;;3.50;3.20;;;;;;;17.50;99.70;97463.59;18164150;32;20070;-62
2022/08/26 00:10:58;;;;;;;4.70;3.03;;;;;;;17.38;100.00;97458.75;18163619;32;20510;-62
2022/08/26 00:21:01;;;;;;;4.20;3.50;;;;;;;17.28;100.00;97454.38;18152174;32;20058;-62
2022/08/26 00:31:07;;;;;;;5.70;4.07;;;;;;;17.17;100.00;97441.34;18172019;32;20084;-62
2022/08/26 00:41:12;;;;;;;6.32;3.50;;;;;;;17.07;100.00;97450.66;18171632;32;20066;-62
2022/08/26 00:51:18;;;;;;;3.62;3.10;;;;;;;17.00;100.00;97462.03;18171454;32;20061;-62
2022/08/26 01:01:21;;;;;;;2.97;2.78;;;;;;;16.87;100.00;97462.91;18099052;32;20461;-62
2022/08/26 01:11:24;;;;;;;3.37;3.08;;;;;;;16.74;100.00;97457.25;17975259;32;20127;-62
2022/08/26 01:22:07;;;;;;;4.00;3.57;;;;;;;16.66;100.00;97451.78;17962968;32;20097;-62
2022/08/26 01:32:18;;;;;;;3.90;3.50;;;;;;;16.58;100.00;97456.88;17913465;32;20095;-62
2022/08/26 01:42:24;;;;;;;3.80;3.40;;;;;;;16.49;100.00;97456.03;18074314;32;20075;-62
2022/08/26 01:52:29;;;;;;;3.12;2.83;;;;;;;16.43;100.00;97460.00;18097144;32;20105;-62
2022/08/26 02:02:32;;;;;;;3.83;3.53;;;;;;;16.34;100.00;97464.63;18174220;32;20107;-61
2022/08/26 02:12:35;;;;;;;3.90;3.10;;;;;;;16.25;100.00;97468.13;18178414;32;20107;-62
2022/08/26 02:22:38;;;;;;;4.05;3.22;;;;;;;16.22;100.00;97463.28;18178104;32;20471;-62
2022/08/26 02:32:41;;;;;;;3.20;2.90;;;;;;;16.16;100.00;97480.09;18177816;32;20417;-62
2022/08/26 02:42:43;;;;;;;7.22;3.45;;;;;;;16.12;100.00;97479.13;18163898;32;20096;-61
2022/08/26 02:52:47;;;;;;;4.12;3.72;;;;;;;16.09;100.00;97483.25;18176640;32;20072;-62
2022/08/26 03:02:50;;;;;;;4.10;3.70;;;;;;;15.97;100.00;97475.63;18176104;32;20075;-61
2022/08/26 03:12:52;;;;;;;4.33;3.27;;;;;;;15.92;100.00;97462.13;18162802;32;20055;-61
2022/08/26 03:22:55;;;;;;;4.22;3.35;;;;;;;15.81;100.00;97461.56;18175149;32;20081;-61
2022/08/26 03:32:58;;;;;;;4.82;3.03;;;;;;;15.80;100.00;97465.41;18174496;32;20459;-62
2022/08/26 03:43:01;;;;;;;3.30;3.00;;;;;;;15.63;100.00;97460.59;18174346;32;20438;-62
2022/08/26 03:53:04;;;;;;;4.37;3.60;;;;;;;15.52;100.00;97464.66;18040343;32;20071;-62
2022/08/26 04:03:56;;;;;;;5.45;3.22;;;;;;;15.48;100.00;97455.50;18039002;32;20214;-62
2022/08/26 04:13:36;;;;;;;3.67;3.25;;;;;;;15.39;100.00;97456.22;18024234;32;20079;-62
2022/08/26 04:23:39;;;;;;;4.32;3.50;;;;;;;15.35;100.00;97459.88;18147542;32;20110;-62
2022/08/26 04:33:49;;;;;;;5.03;3.62;;;;;;;15.28;100.00;97451.31;18168579;32;20101;-62
2022/08/26 04:43:51;;;;;;;5.53;3.40;;;;;;;15.26;100.00;97454.34;18168750;32;20062;-62
2022/08/26 04:53:56;;;;;;;3.73;3.30;;;;;;;15.19;100.00;97470.28;18168480;32;20080;-62
2022/08/26 05:04:00;;;;;;;3.78;3.30;;;;;;;15.12;100.00;97483.53;18155231;32;20051;-62
2022/08/26 05:14:07;;;;;;;4.55;3.67;;;;;;;15.19;100.00;97495.59;18156273;32;20431;-62
2022/08/26 05:24:13;;;;;;;4.12;3.45;;;;;;;15.30;100.00;97501.63;18143245;32;20106;-62
2022/08/26 05:34:20;;;;;;;4.32;3.05;;;;;;;15.47;100.00;97509.19;18168959;32;20122;-61
2022/08/26 05:44:26;;;;;;;3.70;3.40;;;;;;;15.78;100.00;97511.22;18168412;32;20074;-61
2022/08/26 05:54:54;;;;;;;3.83;3.42;;;;;;;16.13;100.00;97522.44;18168257;32;20103;-61
2022/08/26 06:05:01;;;;;;;6.47;3.30;;;;;;;16.51;100.00;97515.75;18167589;32;20051;-62
2022/08/26 06:15:05;;;;;;;3.58;3.28;;;;;;;17.00;100.00;97529.53;18167437;32;20077;-61
2022/08/26 06:35:30;;;;;;;3.80;3.40;;;;;;;18.41;100.00;97534.03;18166529;32;20465;-61
2022/08/26 06:45:33;;;;;;;3.72;3.33;;;;;;;19.08;97.86;97545.47;18166579;32;20059;-62
2022/08/26 06:55:40;;;;;;;5.18;3.97;;;;;;;19.69;96.57;97558.03;18172825;32;20092;-61
2022/08/26 07:05:46;;;;;;;4.18;3.78;;;;;;;20.12;96.43;97559.72;18176072;32;20091;-61
2022/08/26 07:15:50;;;;;;;4.32;3.65;;;;;;;20.38;95.01;97556.72;18103511;32;20078;-62
2022/08/26 07:26:11;;;;;;;5.05;3.80;;;;;;;20.64;94.62;97563.91;18103800;32;20083;-62
2022/08/26 07:36:17;;;;;;;4.00;3.58;;;;;;;21.19;90.91;97570.09;18103357;32;20079;-62
2022/08/26 07:46:21;;;;;;;4.57;3.05;;;;;;;21.92;86.57;97584.97;18115967;32;20369;-62
2022/08/26 07:56:31;;;;;;;4.43;3.28;;;;;;;22.52;72.45;97581.62;18174312;32;20050;-62
2022/08/26 08:06:34;;;;;;;;;;;;;;;22.99;74.80;97582.88;18159164;32;20066;-62
2022/08/26 08:16:45;;;;;;;3.12;2.80;;;;;;;23.36;72.99;97590.91;18172945;32;19979;-62
2022/08/26 08:27:04;;;;;;;3.47;2.80;;;;;;;23.45;67.96;97590.75;18172367;32;20503;-62
2022/08/26 08:37:26;;;;;;;3.78;3.25;;;;;;;23.78;68.53;97595.06;18172109;32;20093;-62
2022/08/26 08:48:32;;;;;;;;;;;;;;;;;;;;;
2022/08/26 08:58:56;;;;;;;3.03;2.55;;;;;;;24.19;70.27;97603.88;18173370;32;20141;-62
2022/08/26 09:09:24;;;;;;;2.33;2.12;;;;;;;24.58;60.54;97609.41;18157781;32;20410;-62
2022/08/26 09:19:57;;;;;;;;;;;;;;;;;;;;;
2022/08/26 09:30:11;;;;;;;2.87;2.28;;;;;;;25.15;63.19;97609.72;18169216;32;20066;-61
2022/08/26 09:40:31;;;;;;;5.15;2.55;;;;;;;25.14;64.68;97610.09;18169300;32;20062;-62
2022/08/26 09:51:00;;;;;;;3.33;2.62;;;;;;;25.26;60.77;97609.91;18168778;32;20071;-61
2022/08/26 10:01:33;;;;;;;5.22;3.12;;;;;;;25.78;64.22;97604.81;18154036;32;20070;-61
2022/08/26 10:11:45;;;;;;;5.47;3.20;;;;;;;26.01;60.27;97590.91;18168085;32;20466;-61
2022/08/26 10:22:03;;;;;;;5.68;3.65;;;;;;;26.28;61.32;97590.88;18034098;32;20101;-61
2022/08/26 10:32:28;;;;;;;4.45;3.70;;;;;;;26.33;56.24;97587.78;18042227;32;20079;-61
2022/08/26 10:42:39;;;;;;;4.43;3.87;;;;;;;26.33;60.51;97578.69;18031851;32;20075;-61
2022/08/26 10:53:05;;;;;;;6.00;3.92;;;;;;;26.16;61.41;97568.97;18159553;32;20379;-61
2022/08/26 11:03:37;;;;;;;5.78;3.78;;;;;;;26.61;62.42;97556.03;18176984;32;20439;-62
2022/08/26 11:14:02;;;;;;;4.18;3.78;;;;;;;27.39;60.74;97535.00;18176142;32;20103;-61
2022/08/26 11:24:05;;;;;;;6.93;4.57;;;;;;;27.87;57.16;97534.91;18161900;32;20055;-61
2022/08/26 11:34:15;;;;;;;6.30;3.80;;;;;;;27.88;59.58;97536.47;18174882;32;20119;-61
2022/08/26 11:44:26;;;;;;;6.87;4.68;;;;;;;27.76;55.55;97528.47;18160457;32;20107;-61
2022/08/26 11:54:31;;;;;;;7.18;5.37;;;;;;;28.20;59.09;97523.97;18173835;32;20071;-61
2022/08/26 12:04:43;;;;;;;6.20;4.10;;;;;;;28.47;56.60;97529.22;18173312;32;20062;-61
2022/08/26 12:15:13;;;;;;;8.52;4.20;;;;;;;28.53;52.42;97524.84;18147439;32;20111;-61
2022/08/26 12:25:22;;;;;;;6.12;4.30;;;;;;;28.64;55.83;97517.38;18159291;32;20077;-61
2022/08/26 12:35:27;;;;;;;7.12;4.87;;;;;;;28.62;55.43;97514.16;18172141;32;20059;-61
2022/08/26 12:45:37;;;;;;;10.15;4.87;;;;;;;28.48;52.10;97516.91;18171528;32;20078;-61
2022/08/26 12:55:51;;;;;;;8.38;4.93;;;;;;;28.85;55.88;97522.16;18170974;32;20054;-61
2022/08/26 13:06:28;;;;;;;9.52;5.10;;;;;;;29.04;50.91;97532.13;18157324;32;20121;-61
2022/08/26 13:16:32;;;;;;;5.12;4.53;;;;;;;28.80;56.18;97503.06;18170261;32;20092;-61
2022/08/26 13:26:36;;;;;;;7.40;5.03;;;;;;;29.24;54.98;97501.09;18169748;32;20063;-61
2022/08/26 13:36:44;;;;;;;5.30;4.50;;;;;;;29.44;54.00;97509.06;18155492;32;20113;-60
2022/08/26 13:46:52;;;;;;;6.45;4.40;;;;;;;29.56;52.60;97511.41;18144876;32;20070;-61
2022/08/26 13:56:56;;;;;;;5.78;3.83;;;;;;;30.11;50.33;97523.25;18155113;32;20355;-60
2022/08/26 14:06:59;;;;;;;9.65;4.65;;;;;;;29.07;50.93;97489.56;18176667;32;20091;-61
2022/08/26 14:17:02;;;;;;;5.40;4.82;;;;;;;29.56;52.15;97480.78;18165989;32;20058;-60
2022/08/26 14:27:05;;;;;;;9.88;4.37;;;;;;;29.13;50.92;97486.41;18164922;32;20054;-60
2022/08/26 14:37:08;;;;;;;5.47;4.12;;;;;;;28.47;56.06;97479.16;18164809;32;20055;-60
2022/08/26 14:47:16;;;;;;;3.85;3.42;;;;;;;28.05;59.16;97459.19;18177361;32;20078;-60
2022/08/26 14:57:20;;;;;;;4.45;3.25;;;;;;;27.53;57.70;97449.03;18176720;32;20066;-60
2022/08/26 15:07:24;;;;;;;3.90;3.50;;;;;;;27.40;57.75;97461.63;18176331;32;20430;-60
2022/08/26 15:17:27;;;;;;;3.65;3.33;;;;;;;27.63;60.50;97461.38;18175837;32;20372;-60
2022/08/26 15:27:31;;;;;;;3.10;2.80;;;;;;;27.26;57.85;97439.28;18149616;32;20099;-60
2022/08/26 15:37:34;;;;;;;3.35;2.85;;;;;;;26.49;57.96;97450.94;18174720;32;20126;-60
2022/08/26 15:47:38;;;;;;;5.00;2.42;;;;;;;26.01;61.41;97444.09;18174269;32;20381;-60
2022/08/26 15:58:01;;;;;;;4.22;2.72;;;;;;;25.60;59.30;97463.37;18173902;32;20378;-60
2022/08/26 16:08:06;;;;;;;3.80;2.78;;;;;;;25.42;64.22;97467.84;18160031;32;20059;-60
2022/08/26 16:18:11;;;;;;;3.92;2.00;;;;;;;25.22;64.98;97476.22;18159617;32;20386;-60
2022/08/26 16:28:16;;;;;;;4.45;2.20;;;;;;;25.00;65.97;97478.66;18171690;32;20058;-60
2022/08/26 16:38:27;;;;;;;2.70;1.90;;;;;;;24.86;66.46;97464.59;18158359;32;20050;-60
2022/08/26 16:48:30;;;;;;;3.97;2.10;;;;;;;24.87;66.35;97450.41;18038517;32;20067;-60
2022/08/26 16:58:32;;;;;;;3.37;2.40;;;;;;;24.66;63.16;97463.87;18037486;32;20392;-60
2022/08/26 17:08:37;;;;;;;3.78;2.55;;;;;;;24.49;66.13;97484.47;18037039;32;20138;-60
2022/08/26 17:18:40;;;;;;;2.22;2.00;;;;;;;24.23;67.25;97483.22;18142208;32;20062;-60
2022/08/26 17:28:43;;;;;;;4.28;2.35;;;;;;;23.86;68.65;97502.94;18169791;32;20074;-60
2022/08/26 17:38:46;;;;;;;4.90;2.87;;;;;;;23.48;70.43;97527.34;18155585;32;20055;-60
2022/08/26 17:48:51;;;;;;;3.67;2.10;;;;;;;23.15;70.13;97558.88;18155563;32;20447;-60
2022/08/26 17:58:57;;;;;;;3.33;2.47;;;;;;;22.84;67.20;97573.41;18154449;32;20062;-60
2022/08/26 18:09:05;;;;;;;4.37;2.28;;;;;;;22.53;70.86;97550.16;18168338;32;20340;-60
2022/08/26 18:19:07;;;;;;;;;;;;;;;22.29;73.74;97551.84;18167773;32;20059;-60
2022/08/26 18:29:10;;;;;;;3.45;2.53;;;;;;;21.96;75.29;97550.09;18153954;32;19950;-60
2022/08/26 18:39:14;;;;;;;2.50;2.30;;;;;;;21.69;77.87;97537.09;17959838;33;20125;-60
2022/08/26 18:49:19;;;;;;;4.47;2.20;;;;;;;21.35;78.18;97541.91;17976457;32;20067;-60
2022/08/26 18:59:23;;;;;;;2.60;2.12;;;;;;;21.05;79.83;97547.63;17982128;32;20518;-60
2022/08/26 19:09:32;;;;;;;2.90;2.55;;;;;;;20.84;80.51;97548.50;18013315;32;20122;-60
2022/08/26 19:19:37;;;;;;;2.30;2.10;;;;;;;20.64;81.22;97542.72;18162631;32;20102;-60
2022/08/26 19:29:40;;;;;;;4.60;2.20;;;;;;;20.44;81.34;97540.84;18175640;32;20106;-60
2022/08/26 19:39:44;;;;;;;3.17;2.42;;;;;;;20.18;81.89;97547.37;18175222;32;20059;-60
2022/08/26 19:49:47;;;;;;;5.93;2.42;;;;;;;19.98;83.01;97555.28;18160650;32;20445;-60
2022/08/26 19:59:49;;;;;;;3.17;2.50;;;;;;;19.86;83.81;97571.69;18172814;32;20439;-60
2022/08/26 20:09:52;;;;;;;3.77;2.30;;;;;;;19.82;84.60;97572.69;18173155;32;20062;-60
2022/08/26 20:30:35;;;;;;;2.55;2.30;;;;;;;20.03;84.73;97606.41;18298104;32;20096;-60
2022/08/26 20:40:38;;;;;;;2.47;2.10;;;;;;;20.09;84.86;97593.28;18297296;32;20121;-59
2022/08/26 20:50:40;;;;;;;3.17;2.27;;;;;;;20.08;87.06;97603.47;18189743;32;20430;-60
2022/08/26 21:00:43;;;;;;;2.60;2.17;;;;;;;20.04;88.03;97607.25;18157216;32;20473;-60
2022/08/26 21:10:49;;;;;;;3.20;2.90;;;;;;;19.92;89.28;97595.03;18170686;32;20058;-59
2022/08/26 21:20:53;;;;;;;4.00;2.65;;;;;;;19.83;89.95;97613.50;18170357;32;20110;-59
2022/08/26 21:30:56;;;;;;;7.07;3.10;;;;;;;19.74;90.06;97623.69;18169525;32;20078;-59
2022/08/26 21:41:01;;;;;;;3.33;3.00;;;;;;;19.58;90.22;97635.25;18169248;32;20077;-59
2022/08/26 21:51:05;;;;;;;7.70;3.55;;;;;;;19.30;93.91;97616.47;18168716;32;20114;-60
2022/08/26 22:01:15;;;;;;;4.05;3.53;;;;;;;19.28;94.96;97607.78;18154813;32;20055;-60
2022/08/26 22:11:18;;;;;;;5.37;3.67;;;;;;;19.30;95.22;97613.72;18154444;32;20099;-60
2022/08/26 22:21:23;;;;;;;6.95;3.50;;;;;;;19.27;95.57;97624.56;18155745;32;20067;-60
2022/08/26 22:31:30;;;;;;;5.32;3.40;;;;;;;19.12;96.20;97625.91;18178499;32;20122;-60
2022/08/26 22:41:41;;;;;;;5.63;4.30;;;;;;;19.01;96.88;97627.38;18178082;32;20054;-59
2022/08/26 22:51:45;;;;;;;5.32;3.90;;;;;;;18.90;97.93;97633.22;18163864;32;20070;-60
2022/08/26 23:01:48;;;;;;;3.78;3.15;;;;;;;18.78;98.88;97619.34;18176375;32;20059;-60
2022/08/26 23:11:50;;;;;;;4.90;3.50;;;;;;;18.71;99.84;97613.56;18162945;32;20366;-60
2022/08/26 23:21:53;;;;;;;6.07;3.22;;;;;;;18.61;100.00;97620.97;18042490;32;20067;-60
2022/08/26 23:31:55;;;;;;;3.60;3.30;;;;;;;18.47;100.00;97628.53;18029326;32;20138;-60
2022/08/26 23:42:00;;;;;;;3.83;3.17;;;;;;;18.36;100.00;97624.53;18029280;32;20068;-60
